Three Rivers, CA

4:23 AM PST on December 20, 2014 (GMT -0800)
Three Rivers Historical Society | Change Station
CLOSE
Current Station
Personal Weather Station
Location: Three Rivers, CA
Elevation: 866 ft
Nearby Weather Stations

Elev 866 ft 36.45 °N, 118.90 °W | Updated 3 minutes ago

Mostly Cloudy
Mostly Cloudy
44.9 °F
Feels Like 45 °F
N
0.0
Wind Variable Wind from NE
Gusts 0.0 mph

Today
High -- | Low -- °F
--% Chance of Precip.
Yesterday
High -- | Low -- °F
Precip. -- in
7:03 AM 4:43 PM
Waning Crescent, 3% visible
Pressure 30.16 in
Visibility 10.0 miles
Clouds Overcast 9000 ft
Windchill 45 °F
Dew Point 43 °F
Humidity 93%
Rainfall 0.00 in
Snow Depth Not available.
UV 0 out of 12
Pollen 3.30 out of 12
Air Quality Not available.
Flu Activity Not available.
METAR KVIS 201215Z AUTO 09004KT 10SM OVC090 09/06 A3016 RMK AO1

More Conditions Fewer Conditions

Pressure 30.16 in
Visibility 10.0 miles
Clouds Overcast 9000 ft
Windchill 45 °F
Dew Point 43 °F
Humidity 93%
Rainfall 0.00 in
Snow Depth Not available.
UV 0 out of 12
Pollen 3.30 out of 12
Air Quality Not available.
Flu Activity Not available.
METAR KVIS 201215Z AUTO 09004KT 10SM OVC090 09/06 A3016 RMK AO1

More Conditions Fewer Conditions

10-Day Weather Forecast

Almanac

Astronomy

Dec. 20, 2014 Rise Set
Actual Time
Civil Twilight
Nautical Twilight
Astronomical Twilight
Moon
Length of Visible Light
Length of Day
Tomorrow will be .
, % of the Moon is Illuminated

Today's Extremes

State Highs State Lows

Community

WunderPhotos

Upload Photos

1,779,163 photos uploaded!

WunderBlogs® & News

Nearby

Air Quality

  Air Quality AQ Index Pollutant
Not available.

Snow Depth

Station Depth Elevation

Earthquake Activity

City Distance Mag. Time & Date
Minimum magnitude displayed is 2.5.

Coastal Water Temperatures

Place Temperature

Nearby Weather Stations